Time,TemperatureF,DewpointF,PressureIn,WindDirection,WindDirectionDegrees,WindSpeedMPH,WindSpeedGustMPH,Humidity,HourlyPrecipIn,Conditions,Clouds,dailyrainin,SoftwareType,DateUTC
2016-02-06 00:14:00,18.9,16.2,30.22,NNW,336,0.0,1.0,89,0.00,,---,0.00,VWS V15.00,2016-02-06 05:14:00,
2016-02-06 00:29:00,18.8,16.1,30.23,NNW,336,0.0,1.0,89,0.00,,---,0.00,VWS V15.00,2016-02-06 05:29:00,
2016-02-06 00:45:00,16.7,14.0,30.23,NNW,336,1.0,1.0,89,0.00,,---,0.00,VWS V15.00,2016-02-06 05:45:00,
2016-02-06 01:00:00,16.7,13.8,30.24,NNW,336,0.0,1.0,88,0.00,,---,0.00,VWS V15.00,2016-02-06 06:00:00,
2016-02-06 01:30:00,14.4,10.7,30.24,NNW,336,0.0,1.0,85,0.00,,---,0.00,VWS V15.00,2016-02-06 06:30:00,
2016-02-06 01:45:00,14.0,12.4,30.25,NNW,336,0.0,1.0,93,0.00,,---,0.00,VWS V15.00,2016-02-06 06:45:00,
2016-02-06 02:00:00,14.9,13.2,30.26,NNW,336,0.0,1.0,93,0.00,,---,0.00,VWS V15.00,2016-02-06 07:00:00,
2016-02-06 02:15:00,13.1,10.7,30.27,NNW,336,0.0,1.0,90,0.00,,---,0.00,VWS V15.00,2016-02-06 07:15:00,
2016-02-06 02:30:00,13.3,11.2,30.27,NNW,336,0.0,1.0,91,0.00,,---,0.00,VWS V15.00,2016-02-06 07:30:00,
2016-02-06 02:45:00,11.8,9.4,30.27,NNW,336,1.0,1.0,90,0.00,,---,0.00,VWS V15.00,2016-02-06 07:45:00,
2016-02-06 03:00:00,12.6,10.7,30.27,NNW,336,1.0,1.0,92,0.00,,---,0.00,VWS V15.00,2016-02-06 08:00:00,
2016-02-06 13:00:00,34.4,26.7,30.27,WSW,248,1.0,5.0,73,0.03,,---,0.08,VWS V15.00,2016-02-06 18:00:00,
2016-02-06 14:08:00,34.6,27.5,30.25,SW,215,0.0,5.0,75,0.03,,---,0.09,VWS V15.00,2016-02-06 19:08:00,
2016-02-06 14:27:00,34.8,27.0,30.24,SSE,154,1.0,4.0,73,0.01,,---,0.09,VWS V15.00,2016-02-06 19:27:00,
2016-02-06 14:38:00,35.0,27.2,30.24,SW,225,2.0,4.0,73,0.01,,---,0.09,VWS V15.00,2016-02-06 19:38:00,
2016-02-06 14:57:00,34.9,26.8,30.24,SSE,167,2.0,4.0,72,0.00,,---,0.09,VWS V15.00,2016-02-06 19:57:00,
2016-02-06 15:08:00,34.7,27.6,30.24,SSE,155,1.0,4.0,75,0.00,,---,0.09,VWS V15.00,2016-02-06 20:08:00,
2016-02-06 15:27:00,34.8,28.0,30.23,South,182,0.0,6.0,76,0.00,,---,0.09,VWS V15.00,2016-02-06 20:27:00,
2016-02-06 15:38:00,34.7,27.9,30.22,South,184,1.0,6.0,76,0.00,,---,0.09,VWS V15.00,2016-02-06 20:38:00,
2016-02-06 15:57:00,34.6,27.5,30.22,SW,223,0.0,7.0,75,0.00,,---,0.09,VWS V15.00,2016-02-06 20:57:00,
2016-02-06 16:08:00,34.1,27.7,30.22,South,182,1.0,7.0,77,0.00,,---,0.09,VWS V15.00,2016-02-06 21:08:00,
2016-02-06 16:27:00,33.7,28.2,30.22,South,169,0.0,7.0,80,0.01,,---,0.10,VWS V15.00,2016-02-06 21:27:00,
2016-02-06 16:38:00,33.6,28.7,30.22,SSE,165,1.0,7.0,82,0.01,,---,0.10,VWS V15.00,2016-02-06 21:38:00,